Aeroporto :
LOGIN :

Iscrizione | Disclaimer

   EN    FR    IT 

 










Sommario :    VFR   VFR Marginale   IFR   IFR Intensivo   IFR Molto Intensivo
Visibilità : 
Base nubi : 
>= 8 km
>= 3000ft
5 / 8 km
1000 / 3000 ft
1500m / 5 km
500 / 1000 ft
800 / 1500m
200 / 500 ft
< 800m
< 200 ft
Simboli :   Temporali  Nebbia  Neve Forte  Precipitazioni Forti  Vento > 20 kt
SIGMETs :   Varie  Temporali  Ghiacco  Turbolenza  Onda orograficha  Ceneri Vulcaniche






- Altitudine del aeroporto : 1249 ft


ETSN - Neuburg AB

ULTIMO METAR :
  • 020120Z 05002KT 2000 -DZRA BR SCT003 BKN010 03/03 Q1019 YLO

METARs OBSOLETI :
  • 020020Z 05001KT 3000 -DZRA BR SCT003 BKN011 03/03 Q1020 YLO
  • 012320Z 07001KT 5000 -DZRA FEW003 SCT008 BKN012 03/03 Q1020 GRN

TAF TAF ETSN
Valido dal 02 a 00 ore il 02 a 09 ore UTC


012311Z 0200/0209 06003KT 8000 NSW BKN015
TEMPO 0200/0209 03005KT 4000 DZRA SCT005 BKN008
PROB30 0206/0209 02003KT 3000 DZ OVC005 BY ETGL



MetMap, La meteo Aeronautica in un colpo d'occhio ! - Copyright ORBIFLY Dicembre 2007 - Disclaimer

ORBIFLY MET'MAP TEAM :

Programmazione e sviluppo : Alexandra Zaïnal
Concezione : Baudouin d'Aumeries
Supporto tecnico e logistico : Manuel Goepfert
Aiuto : Marc-Olivier Méhu
Aiuto per la traduzione : Arnaldo La Scala




FONTI E CREDITI :

   NOAA